Figari Sud-Corse Airport


Codes: LFKF/FSC
Name: Figari Sud-Corse Airport
City: Figari Sud-Corse
Country: France
Elevation: 87 ft.
Wikipedia:

Photos at Figari Sud-Corse Airport


   Photos courtesy of SpottingLog. You can add your own sightings and photos by signing up for a free trial today.



No photos found.

Weather at Figari Sud-Corse Airport


Time (UTC)DescriptionTempratureWindCloud coverageVisibilityPressureHumidity
18-Apr-2024 00:00Clear Sky13°C22 mph, NW0%10000m1008hPa61%
18-Apr-2024 03:00Clear Sky12°C18 mph, NW5%10000m1007hPa65%
18-Apr-2024 06:00Few Clouds12°C16 mph, NW11%10000m1008hPa66%
18-Apr-2024 09:00Clear Sky14°C18 mph, NW0%10000m1009hPa55%
18-Apr-2024 12:00Clear Sky14°C22 mph, NW1%10000m1009hPa54%
18-Apr-2024 15:00Clear Sky13°C22 mph, W4%10000m1009hPa52%
18-Apr-2024 18:00Clear Sky12°C22 mph, W7%10000m1008hPa53%
18-Apr-2024 21:00Light Rain10°C11 mph, W15%10000m1009hPa65%
19-Apr-2024 00:00Light Rain9°C4 mph, NE45%10000m1010hPa76%
19-Apr-2024 03:00Overcast Clouds9°C2 mph, NE97%10000m1012hPa69%
19-Apr-2024 06:00Broken Clouds11°C2 mph, NE72%10000m1015hPa70%
19-Apr-2024 09:00Clear Sky15°C7 mph, SW8%10000m1017hPa52%
19-Apr-2024 12:00Few Clouds15°C9 mph, SW17%10000m1017hPa54%
19-Apr-2024 15:00Scattered Clouds15°C7 mph, W28%10000m1015hPa52%
19-Apr-2024 18:00Few Clouds13°C16 mph, W14%10000m1015hPa68%
19-Apr-2024 21:00Clear Sky11°C13 mph, W0%10000m1015hPa79%
20-Apr-2024 00:00Clear Sky12°C20 mph, W10%10000m1012hPa68%
20-Apr-2024 03:00Scattered Clouds15°C22 mph, W35%10000m1008hPa73%
20-Apr-2024 06:00Scattered Clouds14°C27 mph, NW28%10000m1007hPa74%
20-Apr-2024 09:00Scattered Clouds14°C16 mph, NW41%10000m1007hPa66%
20-Apr-2024 12:00Light Rain16°C7 mph, NW39%10000m1008hPa70%
20-Apr-2024 15:00Light Rain14°C4 mph, SW95%10000m1009hPa74%
20-Apr-2024 18:00Light Rain13°C4 mph, SW83%10000m1010hPa75%
20-Apr-2024 21:00Light Rain11°C7 mph, NE51%10000m1012hPa82%
21-Apr-2024 00:00Light Rain10°C4 mph, NE29%10000m1012hPa77%
21-Apr-2024 03:00Scattered Clouds10°C9 mph, NE28%10000m1012hPa74%
21-Apr-2024 06:00Few Clouds11°C9 mph, NE17%10000m1013hPa69%
21-Apr-2024 09:00Clear Sky15°C2 mph, NE9%10000m1014hPa44%
21-Apr-2024 12:00Light Rain14°C2 mph, NE38%10000m1014hPa54%
21-Apr-2024 15:00Light Rain14°C2 mph, E86%10000m1014hPa55%
21-Apr-2024 18:00Light Rain12°C4 mph, NE66%10000m1013hPa63%
21-Apr-2024 21:00Clear Sky10°C4 mph, NE0%10000m1014hPa75%
22-Apr-2024 00:00Clear Sky10°C2 mph, NE2%10000m1013hPa70%
22-Apr-2024 03:00Clear Sky10°C9 mph, SW8%10000m1012hPa79%
22-Apr-2024 06:00Scattered Clouds13°C13 mph, W27%10000m1011hPa64%
22-Apr-2024 09:00Clear Sky13°C18 mph, W4%10000m1013hPa54%
22-Apr-2024 12:00Scattered Clouds13°C16 mph, W25%10000m1014hPa54%
22-Apr-2024 15:00Few Clouds13°C13 mph, W15%10000m1013hPa57%
22-Apr-2024 18:00Few Clouds11°C11 mph, NW23%10000m1014hPa66%
22-Apr-2024 21:00Light Rain10°C4 mph, W92%10000m1015hPa69%